Time;durP1;ratioP1;P1;durP2;ratioP2;P2;SDS_P1;SDS_P2;PMS_P1;PMS_P2;Temp;Humidity;BMP_temperature;BMP_pressure;BME280_temperature;BME280_humidity;BME280_pressure;Samples;Min_cycle;Max_cycle;Signal;HPM_P1;HPM_P2
2023/01/25 00:00:09;;;;;;;3.17;2.22;;;;;;;;;;5092511;28;20430;-59
2023/01/25 00:02:35;;;;;;;3.65;2.42;;;;;;;;;;5092627;28;20020;-59
2023/01/25 00:05:01;;;;;;;3.15;2.35;;;;;;;;;;5092384;28;20144;-58
2023/01/25 00:07:26;;;;;;;2.95;1.95;;;;;;;;;;5092652;28;20065;-58
2023/01/25 00:09:52;;;;;;;4.80;3.00;;;;;;;;;;5094936;28;20076;-58
2023/01/25 00:12:17;;;;;;;3.78;2.20;;;;;;;;;;5091930;28;20062;-62
2023/01/25 00:14:44;;;;;;;4.05;2.70;;;;;;;;;;5092283;28;20020;-57
2023/01/25 00:17:09;;;;;;;3.38;2.42;;;;;;;;;;5095941;28;20023;-59
2023/01/25 00:19:36;;;;;;;4.43;2.55;;;;;;;;;;5098738;28;20023;-58
2023/01/25 00:22:01;;;;;;;4.13;2.85;;;;;;;;;;5099586;28;20037;-57
2023/01/25 00:24:27;;;;;;;3.35;2.03;;;;;;;;;;5098312;28;20141;-61
2023/01/25 00:26:52;;;;;;;2.97;2.25;;;;;;;;;;5098175;28;20016;-57
2023/01/25 00:29:17;;;;;;;3.30;1.58;;;;;;;;;;5098210;28;20024;-59
2023/01/25 00:31:50;;;;;;;4.13;2.20;;;;;;;;;;5099590;28;20026;-58
2023/01/25 00:34:19;;;;;;;4.95;2.30;;;;;;;;;;5099436;28;20032;-59
2023/01/25 00:36:45;;;;;;;6.20;2.65;;;;;;;;;;5098442;28;20027;-58
2023/01/25 00:39:11;;;;;;;3.20;1.70;;;;;;;;;;5097894;28;20024;-58
2023/01/25 00:41:37;;;;;;;2.00;1.65;;;;;;;;;;5098554;28;20070;-58
2023/01/25 00:44:02;;;;;;;2.80;1.90;;;;;;;;;;5099546;28;20486;-58
2023/01/25 00:46:28;;;;;;;5.55;3.17;;;;;;;;;;5099667;28;20024;-61
2023/01/25 00:48:53;;;;;;;4.28;2.15;;;;;;;;;;5099726;28;20380;-60
2023/01/25 00:51:19;;;;;;;3.45;2.20;;;;;;;;;;5098028;28;20089;-59
2023/01/25 00:53:45;;;;;;;4.95;2.63;;;;;;;;;;5098010;28;20480;-60
2023/01/25 00:56:10;;;;;;;3.97;1.60;;;;;;;;;;5098487;28;20027;-57
2023/01/25 00:58:35;;;;;;;2.58;1.30;;;;;;;;;;5098260;28;20020;-60
2023/01/25 01:01:01;;;;;;;2.92;2.03;;;;;;;;;;5097711;28;20016;-60
2023/01/25 01:03:26;;;;;;;1.75;1.33;;;;;;;;;;5101954;28;20016;-59
2023/01/25 01:06:08;;;;;;;4.00;2.25;;;;;;;;;;5102612;28;20100;-65
2023/01/25 01:08:35;;;;;;;4.70;1.48;;;;;;;;;;5102478;28;20024;-60
2023/01/25 01:11:02;;;;;;;2.33;1.35;;;;;;;;;;5099476;28;20490;-58
2023/01/25 01:13:28;;;;;;;3.17;2.72;;;;;;;;;;5097840;28;20111;-58
2023/01/25 01:15:54;;;;;;;3.15;2.20;;;;;;;;;;5097946;28;20111;-60
2023/01/25 01:18:19;;;;;;;3.55;2.22;;;;;;;;;;5099589;28;20043;-59
2023/01/25 01:20:49;;;;;;;2.53;1.90;;;;;;;;;;5099162;28;20024;-58
2023/01/25 01:23:15;;;;;;;4.03;2.28;;;;;;;;;;5098764;28;20032;-58
2023/01/25 01:25:40;;;;;;;3.90;1.58;;;;;;;;;;5097956;28;20164;-60
2023/01/25 01:28:05;;;;;;;3.33;1.52;;;;;;;;;;5097996;28;20013;-59
2023/01/25 01:30:31;;;;;;;4.28;1.90;;;;;;;;;;5097288;28;20020;-60
2023/01/25 01:32:56;;;;;;;1.88;1.42;;;;;;;;;;5094893;28;20180;-59
2023/01/25 01:35:22;;;;;;;3.58;1.30;;;;;;;;;;5096078;28;20449;-58
2023/01/25 01:37:47;;;;;;;2.03;1.60;;;;;;;;;;5094213;28;20020;-58
2023/01/25 01:40:15;;;;;;;1.55;1.23;;;;;;;;;;5095651;28;20349;-57
2023/01/25 01:43:00;;;;;;;1.63;1.20;;;;;;;;;;5095915;28;20031;-60
2023/01/25 01:45:44;;;;;;;1.63;0.88;;;;;;;;;;5094319;28;20031;-59
2023/01/25 01:48:14;;;;;;;2.47;1.30;;;;;;;;;;5093866;28;20396;-58
2023/01/25 01:50:39;;;;;;;4.03;1.73;;;;;;;;;;5094078;28;20016;-58
2023/01/25 01:53:05;;;;;;;2.60;1.27;;;;;;;;;;5094043;28;20369;-59
2023/01/25 01:55:30;;;;;;;4.53;1.98;;;;;;;;;;5095603;28;20134;-58
2023/01/25 01:57:57;;;;;;;4.10;1.60;;;;;;;;;;5098137;28;20012;-57
2023/01/25 02:00:25;;;;;;;2.00;1.35;;;;;;;;;;5097761;28;20016;-59
2023/01/25 02:02:51;;;;;;;2.90;1.85;;;;;;;;;;5098180;28;20028;-57
2023/01/25 02:05:35;;;;;;;5.10;2.50;;;;;;;;;;5096437;28;20452;-59
2023/01/25 02:08:02;;;;;;;3.60;2.03;;;;;;;;;;5096225;28;20032;-58
2023/01/25 02:10:28;;;;;;;3.35;1.40;;;;;;;;;;5095381;28;20019;-59
2023/01/25 02:12:54;;;;;;;3.10;1.80;;;;;;;;;;5098023;28;20038;-58
2023/01/25 02:15:20;;;;;;;2.58;1.20;;;;;;;;;;5095772;28;20016;-62
2023/01/25 02:17:46;;;;;;;3.05;1.70;;;;;;;;;;5096141;28;20019;-58
2023/01/25 02:20:17;;;;;;;2.22;1.63;;;;;;;;;;5094487;28;20540;-59
2023/01/25 02:22:48;;;;;;;3.70;1.88;;;;;;;;;;5093973;28;20377;-58
2023/01/25 02:25:15;;;;;;;2.72;1.73;;;;;;;;;;5094464;28;20065;-59
2023/01/25 02:27:46;;;;;;;3.55;1.67;;;;;;;;;;5094152;28;20024;-56
2023/01/25 02:30:11;;;;;;;4.05;1.90;;;;;;;;;;5094329;28;20035;-59
2023/01/25 02:32:37;;;;;;;3.63;1.20;;;;;;;;;;5095567;28;20032;-60
2023/01/25 02:35:03;;;;;;;2.75;1.52;;;;;;;;;;5095356;28;20016;-57
2023/01/25 02:37:28;;;;;;;2.05;1.33;;;;;;;;;;5094960;28;20034;-57
2023/01/25 02:39:54;;;;;;;2.13;1.05;;;;;;;;;;5093128;28;20054;-58
2023/01/25 02:42:19;;;;;;;1.50;1.10;;;;;;;;;;5093067;28;20024;-59
2023/01/25 02:44:45;;;;;;;1.55;1.17;;;;;;;;;;5096245;28;20473;-58
2023/01/25 02:47:11;;;;;;;2.72;1.77;;;;;;;;;;5095134;28;20039;-64
2023/01/25 02:49:36;;;;;;;1.52;1.35;;;;;;;;;;5096385;28;20012;-59
2023/01/25 02:52:03;;;;;;;1.92;1.40;;;;;;;;;;5095164;28;20075;-57
2023/01/25 02:54:29;;;;;;;2.22;1.50;;;;;;;;;;5096334;28;20052;-62
2023/01/25 02:56:55;;;;;;;2.75;1.17;;;;;;;;;;5096465;28;20487;-59
2023/01/25 02:59:21;;;;;;;1.42;1.05;;;;;;;;;;5094517;28;20052;-59
2023/01/25 03:01:47;;;;;;;3.90;1.50;;;;;;;;;;5094211;28;20028;-57
2023/01/25 03:04:13;;;;;;;1.92;1.42;;;;;;;;;;5094380;28;20079;-58
2023/01/25 03:06:39;;;;;;;1.70;0.98;;;;;;;;;;5092820;28;20481;-58
2023/01/25 03:09:07;;;;;;;1.55;1.30;;;;;;;;;;5092384;28;20024;-58
2023/01/25 03:11:33;;;;;;;1.40;0.85;;;;;;;;;;5094035;28;20023;-60
2023/01/25 03:14:00;;;;;;;2.45;1.17;;;;;;;;;;5093974;28;20111;-60
2023/01/25 03:16:26;;;;;;;0.70;0.60;;;;;;;;;;5094118;28;20020;-58
2023/01/25 03:18:51;;;;;;;2.90;1.17;;;;;;;;;;5094060;28;20008;-58
2023/01/25 03:21:18;;;;;;;2.30;1.35;;;;;;;;;;5093640;28;20055;-59
2023/01/25 03:23:44;;;;;;;1.40;1.10;;;;;;;;;;5093766;28;20016;-59
2023/01/25 03:26:17;;;;;;;2.65;0.80;;;;;;;;;;5095065;28;20044;-66
2023/01/25 03:28:43;;;;;;;1.88;1.25;;;;;;;;;;5093438;28;20020;-66
2023/01/25 03:31:09;;;;;;;2.03;1.20;;;;;;;;;;5094531;28;20337;-60
2023/01/25 03:33:35;;;;;;;1.25;0.85;;;;;;;;;;5093508;28;20057;-62
2023/01/25 03:36:00;;;;;;;1.70;1.27;;;;;;;;;;5094859;28;20481;-58
2023/01/25 03:38:26;;;;;;;1.30;1.17;;;;;;;;;;5093984;28;20020;-59
2023/01/25 03:40:52;;;;;;;2.22;1.40;;;;;;;;;;5093009;28;20031;-59
2023/01/25 03:43:17;;;;;;;2.13;1.05;;;;;;;;;;5093023;28;20061;-58
2023/01/25 03:45:44;;;;;;;1.45;0.70;;;;;;;;;;5093282;28;20047;-58
2023/01/25 03:48:09;;;;;;;3.28;1.13;;;;;;;;;;5093146;28;20008;-57
2023/01/25 03:50:35;;;;;;;1.38;0.93;;;;;;;;;;5093403;28;20020;-58
2023/01/25 03:53:05;;;;;;;1.55;1.00;;;;;;;;;;5090909;28;20047;-60
2023/01/25 03:55:31;;;;;;;1.50;1.20;;;;;;;;;;5091886;28;20380;-59
2023/01/25 03:57:56;;;;;;;1.73;0.80;;;;;;;;;;5093013;28;20016;-57
2023/01/25 04:00:22;;;;;;;1.95;0.90;;;;;;;;;;5093043;28;20016;-58
2023/01/25 04:02:48;;;;;;;1.00;0.77;;;;;;;;;;5091880;28;20055;-58
2023/01/25 04:05:13;;;;;;;1.33;0.88;;;;;;;;;;5093078;28;20048;-62
2023/01/25 04:07:38;;;;;;;1.25;0.57;;;;;;;;;;5092036;28;20023;-58
2023/01/25 04:10:05;;;;;;;1.63;0.93;;;;;;;;;;5093417;28;20016;-60
2023/01/25 04:12:30;;;;;;;0.80;0.60;;;;;;;;;;5093188;28;20024;-58
2023/01/25 04:14:56;;;;;;;1.25;0.85;;;;;;;;;;5092648;28;20019;-57
2023/01/25 04:17:21;;;;;;;2.13;1.08;;;;;;;;;;5091364;28;20388;-62
2023/01/25 04:19:47;;;;;;;3.55;1.15;;;;;;;;;;5092956;28;20039;-57
2023/01/25 04:22:12;;;;;;;3.28;0.73;;;;;;;;;;5093046;28;20047;-58
2023/01/25 04:24:38;;;;;;;2.72;0.85;;;;;;;;;;5093297;28;20019;-59
2023/01/25 04:27:04;;;;;;;1.95;0.82;;;;;;;;;;5092906;28;20024;-59
2023/01/25 04:29:29;;;;;;;3.35;1.35;;;;;;;;;;5091633;28;20480;-58
2023/01/25 04:31:55;;;;;;;0.93;0.55;;;;;;;;;;5093376;28;20026;-57
2023/01/25 04:34:20;;;;;;;2.45;0.90;;;;;;;;;;5093393;28;20389;-59
2023/01/25 04:36:46;;;;;;;1.38;1.00;;;;;;;;;;5091317;28;20476;-57
2023/01/25 04:39:11;;;;;;;1.40;1.27;;;;;;;;;;5092339;28;20016;-57
2023/01/25 04:41:37;;;;;;;1.20;0.98;;;;;;;;;;5092593;28;20012;-57
2023/01/25 04:44:02;;;;;;;1.65;0.80;;;;;;;;;;5092688;28;20418;-56
2023/01/25 04:46:28;;;;;;;1.88;0.90;;;;;;;;;;5091429;28;20020;-61
2023/01/25 04:48:53;;;;;;;3.45;1.48;;;;;;;;;;5091275;28;20016;-58
2023/01/25 04:51:19;;;;;;;1.48;0.95;;;;;;;;;;5090937;28;20461;-59
2023/01/25 04:53:44;;;;;;;2.47;0.95;;;;;;;;;;5092580;28;20028;-59
2023/01/25 04:56:10;;;;;;;2.38;1.05;;;;;;;;;;5092247;28;20020;-58
2023/01/25 04:58:35;;;;;;;2.42;1.20;;;;;;;;;;5091266;28;20021;-59
2023/01/25 05:01:01;;;;;;;2.10;1.13;;;;;;;;;;5090922;28;20034;-58
2023/01/25 05:03:28;;;;;;;4.00;1.40;;;;;;;;;;5090996;28;20042;-58
2023/01/25 05:05:53;;;;;;;1.63;1.30;;;;;;;;;;5094795;28;20059;-59
2023/01/25 05:08:19;;;;;;;3.33;1.45;;;;;;;;;;5097977;28;20034;-60
2023/01/25 05:10:44;;;;;;;1.35;0.95;;;;;;;;;;5097704;28;20019;-58
2023/01/25 05:13:10;;;;;;;2.42;0.93;;;;;;;;;;5095735;28;20032;-58
2023/01/25 05:15:35;;;;;;;2.05;1.45;;;;;;;;;;5094912;28;20024;-60
2023/01/25 05:18:02;;;;;;;1.90;1.38;;;;;;;;;;5095818;28;20504;-58
2023/01/25 05:20:28;;;;;;;2.47;1.40;;;;;;;;;;5094486;28;20051;-58
2023/01/25 05:22:53;;;;;;;1.90;1.38;;;;;;;;;;5096650;28;20114;-59
2023/01/25 05:28:03;;;;;;;3.45;1.50;;;;;;;;;;5096681;28;20027;-58
2023/01/25 05:30:29;;;;;;;1.30;1.20;;;;;;;;;;5095452;28;20022;-58
2023/01/25 05:32:54;;;;;;;1.48;1.25;;;;;;;;;;5094197;28;20115;-58
2023/01/25 05:35:20;;;;;;;2.10;1.15;;;;;;;;;;5093647;28;20021;-57
2023/01/25 05:37:45;;;;;;;3.00;1.27;;;;;;;;;;5095510;28;20103;-58
2023/01/25 05:40:11;;;;;;;2.28;1.65;;;;;;;;;;5094226;28;20032;-58
2023/01/25 05:42:37;;;;;;;2.03;1.35;;;;;;;;;;5094338;28;20016;-63
2023/01/25 05:45:03;;;;;;;1.67;1.17;;;;;;;;;;5095704;28;20456;-59
2023/01/25 05:47:28;;;;;;;1.73;1.00;;;;;;;;;;5094213;28;20023;-57
2023/01/25 05:49:54;;;;;;;2.15;1.58;;;;;;;;;;5093713;28;20082;-58
2023/01/25 05:52:19;;;;;;;1.25;1.13;;;;;;;;;;5095657;28;20424;-59
2023/01/25 05:54:45;;;;;;;2.22;1.70;;;;;;;;;;5093840;28;20024;-60
2023/01/25 05:57:12;;;;;;;1.88;1.58;;;;;;;;;;5093902;28;20031;-58
2023/01/25 05:59:37;;;;;;;2.80;1.52;;;;;;;;;;5093999;28;20039;-59
2023/01/25 06:02:03;;;;;;;2.17;1.30;;;;;;;;;;5093875;28;20618;-58
2023/01/25 06:04:28;;;;;;;2.40;1.98;;;;;;;;;;5093368;28;20051;-60
2023/01/25 06:06:55;;;;;;;4.03;1.75;;;;;;;;;;5094737;28;20116;-60
2023/01/25 06:09:22;;;;;;;3.30;2.22;;;;;;;;;;5094871;28;20036;-59
2023/01/25 06:11:48;;;;;;;3.42;1.20;;;;;;;;;;5094972;28;20016;-57
2023/01/25 06:14:14;;;;;;;2.35;1.33;;;;;;;;;;5094399;28;20545;-60
2023/01/25 06:16:40;;;;;;;1.40;0.77;;;;;;;;;;5097267;28;20016;-60
2023/01/25 06:19:06;;;;;;;1.67;1.35;;;;;;;;;;5097334;28;20020;-59
2023/01/25 06:21:34;;;;;;;2.15;1.25;;;;;;;;;;5096905;28;20020;-63
2023/01/25 06:23:59;;;;;;;2.17;0.60;;;;;;;;;;5096716;28;20020;-60
2023/01/25 06:26:24;;;;;;;3.13;1.83;;;;;;;;;;5095004;28;20023;-59
2023/01/25 06:28:50;;;;;;;2.08;1.30;;;;;;;;;;5093382;28;20020;-58
2023/01/25 06:31:16;;;;;;;3.38;1.50;;;;;;;;;;5093964;28;20103;-60
2023/01/25 06:33:42;;;;;;;4.07;1.40;;;;;;;;;;5092565;28;20499;-60
2023/01/25 06:36:12;;;;;;;3.75;1.30;;;;;;;;;;5094399;28;20107;-60
2023/01/25 06:38:38;;;;;;;2.22;1.58;;;;;;;;;;5093301;28;20026;-59
2023/01/25 06:41:05;;;;;;;1.58;1.48;;;;;;;;;;5094397;28;20012;-59
2023/01/25 06:43:31;;;;;;;2.15;1.50;;;;;;;;;;5093340;28;20047;-58
2023/01/25 06:45:58;;;;;;;4.13;2.00;;;;;;;;;;5094084;28;20024;-61
2023/01/25 06:48:23;;;;;;;1.63;1.33;;;;;;;;;;5094903;28;20008;-58
2023/01/25 06:50:53;;;;;;;4.22;1.63;;;;;;;;;;5094017;28;20112;-58
2023/01/25 06:53:18;;;;;;;2.28;1.48;;;;;;;;;;5093303;28;20043;-58
2023/01/25 06:55:44;;;;;;;2.40;1.70;;;;;;;;;;5093549;28;20380;-61
2023/01/25 06:58:09;;;;;;;2.17;1.80;;;;;;;;;;5093095;28;20388;-60
2023/01/25 07:00:35;;;;;;;1.88;1.27;;;;;;;;;;5094117;28;20111;-58
2023/01/25 07:03:00;;;;;;;2.17;1.77;;;;;;;;;;5094756;28;20544;-59
2023/01/25 07:05:26;;;;;;;1.63;1.17;;;;;;;;;;5094331;28;20554;-60
2023/01/25 07:07:52;;;;;;;4.03;1.50;;;;;;;;;;5093639;28;20125;-59
2023/01/25 07:10:18;;;;;;;4.60;2.33;;;;;;;;;;5093968;28;20034;-59
2023/01/25 07:12:44;;;;;;;1.40;0.80;;;;;;;;;;5095609;28;20060;-63
2023/01/25 07:15:10;;;;;;;3.50;1.17;;;;;;;;;;5094010;28;20020;-60
2023/01/25 07:17:35;;;;;;;2.25;1.20;;;;;;;;;;5092756;28;20023;-59
2023/01/25 07:20:01;;;;;;;0.90;0.80;;;;;;;;;;5093428;28;20492;-58
2023/01/25 07:22:27;;;;;;;1.58;0.93;;;;;;;;;;5091638;28;20027;-58
2023/01/25 07:24:56;;;;;;;1.73;0.90;;;;;;;;;;5090770;28;20026;-60
2023/01/25 07:27:22;;;;;;;0.90;0.70;;;;;;;;;;5092649;28;20016;-58
2023/01/25 07:29:47;;;;;;;3.92;1.30;;;;;;;;;;5092468;28;20024;-59
2023/01/25 07:32:13;;;;;;;2.15;1.15;;;;;;;;;;5092817;28;20044;-60
2023/01/25 07:34:39;;;;;;;2.78;0.98;;;;;;;;;;5090554;28;20040;-59
2023/01/25 07:37:04;;;;;;;1.02;0.68;;;;;;;;;;5092628;28;20061;-59
2023/01/25 07:39:30;;;;;;;1.70;1.10;;;;;;;;;;5093074;28;20016;-61
2023/01/25 07:41:55;;;;;;;2.33;0.85;;;;;;;;;;5092358;28;20012;-59
2023/01/25 07:44:21;;;;;;;3.08;1.02;;;;;;;;;;5092585;28;20376;-60
2023/01/25 07:46:46;;;;;;;1.48;1.38;;;;;;;;;;5092453;28;20008;-60
2023/01/25 07:49:12;;;;;;;1.05;0.77;;;;;;;;;;5091649;28;20027;-61
2023/01/25 07:51:37;;;;;;;1.75;0.95;;;;;;;;;;5092740;28;20016;-60
2023/01/25 07:54:04;;;;;;;2.78;1.42;;;;;;;;;;5092543;28;20024;-60
2023/01/25 07:56:34;;;;;;;1.42;1.25;;;;;;;;;;5092285;28;20028;-60
2023/01/25 07:59:01;;;;;;;1.92;1.10;;;;;;;;;;5091883;28;20020;-60
2023/01/25 08:01:27;;;;;;;1.75;0.57;;;;;;;;;;5092527;28;20020;-60
2023/01/25 08:03:55;;;;;;;1.20;0.88;;;;;;;;;;5092119;28;20020;-60
2023/01/25 08:06:26;;;;;;;1.42;0.75;;;;;;;;;;5092234;28;20075;-59
2023/01/25 08:08:52;;;;;;;1.85;0.70;;;;;;;;;;5092329;28;20043;-59
2023/01/25 08:11:22;;;;;;;0.80;0.63;;;;;;;;;;5090620;28;20027;-59
2023/01/25 08:13:48;;;;;;;1.52;0.70;;;;;;;;;;5092073;28;20484;-59
2023/01/25 08:16:15;;;;;;;2.67;0.75;;;;;;;;;;5092414;28;20098;-59
2023/01/25 08:18:40;;;;;;;0.85;0.50;;;;;;;;;;5092445;28;20027;-60
2023/01/25 08:21:06;;;;;;;1.25;0.88;;;;;;;;;;5094459;28;20020;-66
2023/01/25 08:23:31;;;;;;;0.88;0.52;;;;;;;;;;5093921;28;20023;-60
2023/01/25 08:26:07;;;;;;;1.50;0.43;;;;;;;;;;5092337;28;20015;-60
2023/01/25 08:28:32;;;;;;;1.00;0.60;;;;;;;;;;5092450;28;20024;-59
2023/01/25 08:31:10;;;;;;;1.05;0.43;;;;;;;;;;5092478;28;20017;-60
2023/01/25 08:33:37;;;;;;;0.45;0.32;;;;;;;;;;5093404;28;20036;-63
2023/01/25 08:36:03;;;;;;;0.85;0.52;;;;;;;;;;5092887;28;20408;-64
2023/01/25 08:38:28;;;;;;;1.48;0.70;;;;;;;;;;5094428;28;20055;-59
2023/01/25 08:40:54;;;;;;;1.08;0.70;;;;;;;;;;5095119;28;20047;-60
2023/01/25 08:43:19;;;;;;;1.17;0.40;;;;;;;;;;5096147;28;20020;-60
2023/01/25 08:45:45;;;;;;;1.30;0.55;;;;;;;;;;5096114;28;20020;-59
2023/01/25 08:48:14;;;;;;;0.75;0.40;;;;;;;;;;5096445;28;20528;-58
2023/01/25 08:50:44;;;;;;;1.30;0.68;;;;;;;;;;5095219;28;20031;-59
2023/01/25 08:53:10;;;;;;;1.77;0.60;;;;;;;;;;5095779;28;20080;-59
2023/01/25 08:55:35;;;;;;;1.77;0.50;;;;;;;;;;5096215;28;20099;-60
2023/01/25 08:58:01;;;;;;;0.80;0.50;;;;;;;;;;5094974;28;20052;-59
2023/01/25 09:00:26;;;;;;;1.50;0.40;;;;;;;;;;5095963;28;20479;-60
2023/01/25 09:02:51;;;;;;;1.38;0.60;;;;;;;;;;5096009;28;20020;-60
2023/01/25 09:05:17;;;;;;;1.73;0.50;;;;;;;;;;5095418;28;20097;-59
2023/01/25 09:07:43;;;;;;;1.50;0.60;;;;;;;;;;5095672;28;20107;-59
2023/01/25 09:10:09;;;;;;;0.77;0.40;;;;;;;;;;5095662;28;20095;-59
2023/01/25 09:12:34;;;;;;;1.08;0.60;;;;;;;;;;5095933;28;20016;-60
2023/01/25 09:15:00;;;;;;;1.60;0.40;;;;;;;;;;5095938;28;20511;-59
2023/01/25 09:17:25;;;;;;;2.90;0.50;;;;;;;;;;5094813;28;20019;-60
2023/01/25 09:19:51;;;;;;;1.23;0.80;;;;;;;;;;5095406;28;20051;-59
2023/01/25 09:22:16;;;;;;;1.58;0.38;;;;;;;;;;5095487;28;20043;-58
2023/01/25 09:24:42;;;;;;;1.38;0.40;;;;;;;;;;5094583;28;20069;-59
2023/01/25 09:27:07;;;;;;;2.65;0.60;;;;;;;;;;5095467;28;20009;-59
2023/01/25 09:29:32;;;;;;;1.55;0.60;;;;;;;;;;5096249;28;20016;-59
2023/01/25 09:31:58;;;;;;;1.10;0.47;;;;;;;;;;5096196;28;20028;-59
2023/01/25 09:34:23;;;;;;;0.30;0.20;;;;;;;;;;5095801;28;20093;-57
2023/01/25 09:36:49;;;;;;;2.65;0.65;;;;;;;;;;5093701;28;20032;-60
2023/01/25 09:39:14;;;;;;;2.97;1.35;;;;;;;;;;5095337;28;20487;-60
2023/01/25 09:41:43;;;;;;;0.75;0.35;;;;;;;;;;5094823;28;20086;-59
2023/01/25 09:44:08;;;;;;;1.17;0.60;;;;;;;;;;5094890;28;20020;-60
2023/01/25 09:46:42;;;;;;;0.93;0.70;;;;;;;;;;5093558;28;20042;-60
2023/01/25 09:49:26;;;;;;;2.05;0.40;;;;;;;;;;5093630;28;20076;-59
2023/01/25 09:52:10;;;;;;;1.20;0.40;;;;;;;;;;5093515;28;20032;-59
2023/01/25 09:54:38;;;;;;;0.50;0.30;;;;;;;;;;5094558;28;20020;-60
2023/01/25 09:57:09;;;;;;;3.50;0.68;;;;;;;;;;5092855;28;20031;-59
2023/01/25 09:59:34;;;;;;;1.67;0.63;;;;;;;;;;5094634;28;20194;-59
2023/01/25 10:02:23;;;;;;;0.90;0.20;;;;;;;;;;5093356;28;20060;-59
2023/01/25 10:04:51;;;;;;;1.23;0.30;;;;;;;;;;5092217;28;20100;-60
2023/01/25 10:07:23;;;;;;;2.38;0.50;;;;;;;;;;5092554;28;20110;-60
2023/01/25 10:09:52;;;;;;;0.43;0.22;;;;;;;;;;5094457;28;20028;-60
2023/01/25 10:12:19;;;;;;;0.30;0.10;;;;;;;;;;5094333;28;20020;-60
2023/01/25 10:14:45;;;;;;;0.88;0.30;;;;;;;;;;5093974;28;20407;-61
2023/01/25 10:17:19;;;;;;;0.20;0.13;;;;;;;;;;5093227;28;20099;-60
2023/01/25 10:20:03;;;;;;;0.20;0.10;;;;;;;;;;5094059;28;20020;-60
2023/01/25 10:22:34;;;;;;;1.02;0.50;;;;;;;;;;5093878;28;20032;-60
2023/01/25 10:25:22;;;;;;;0.65;0.20;;;;;;;;;;5093599;28;20035;-60
2023/01/25 10:27:48;;;;;;;0.40;0.30;;;;;;;;;;5094336;28;20116;-61
2023/01/25 10:30:35;;;;;;;1.17;0.20;;;;;;;;;;5092481;28;20134;-60
2023/01/25 10:33:04;;;;;;;0.30;0.08;;;;;;;;;;5093046;28;20044;-60
2023/01/25 10:35:35;;;;;;;0.68;0.40;;;;;;;;;;5093675;28;20388;-59
2023/01/25 10:38:20;;;;;;;0.95;0.50;;;;;;;;;;5093683;28;20452;-61
2023/01/25 10:40:49;;;;;;;0.65;0.40;;;;;;;;;;5093068;28;20085;-62
2023/01/25 10:43:19;;;;;;;0.80;0.35;;;;;;;;;;5092800;28;20413;-59
2023/01/25 10:45:46;;;;;;;0.22;0.20;;;;;;;;;;5091938;28;20443;-64
2023/01/25 10:48:16;;;;;;;0.38;0.28;;;;;;;;;;5093251;28;20085;-61
2023/01/25 10:50:46;;;;;;;1.55;0.43;;;;;;;;;;5093648;28;20027;-64
2023/01/25 10:53:38;;;;;;;1.70;0.30;;;;;;;;;;5093115;28;20036;-60
2023/01/25 10:56:03;;;;;;;3.05;0.45;;;;;;;;;;5089886;28;20032;-59
2023/01/25 10:58:34;;;;;;;0.85;0.30;;;;;;;;;;5091779;28;20026;-60
2023/01/25 11:01:00;;;;;;;0.68;0.30;;;;;;;;;;5091629;28;20024;-64
2023/01/25 11:03:32;;;;;;;0.30;0.30;;;;;;;;;;5093164;28;20405;-60
2023/01/25 11:05:58;;;;;;;0.80;0.35;;;;;;;;;;5092621;28;20044;-61
2023/01/25 11:08:23;;;;;;;0.73;0.30;;;;;;;;;;5093511;28;20479;-60
2023/01/25 11:10:49;;;;;;;0.98;0.30;;;;;;;;;;5092810;28;20020;-61
2023/01/25 11:13:15;;;;;;;0.52;0.30;;;;;;;;;;5092672;28;20031;-60
2023/01/25 11:15:40;;;;;;;0.43;0.20;;;;;;;;;;5093028;28;20381;-60
2023/01/25 11:18:11;;;;;;;2.08;0.68;;;;;;;;;;5092530;28;20016;-60
2023/01/25 11:20:36;;;;;;;2.25;0.30;;;;;;;;;;5093316;28;20019;-68
2023/01/25 11:23:02;;;;;;;1.48;0.57;;;;;;;;;;5093210;28;20016;-62
2023/01/25 11:25:31;;;;;;;0.50;0.20;;;;;;;;;;5094752;28;20468;-60
2023/01/25 11:28:10;;;;;;;1.15;0.30;;;;;;;;;;5093908;28;20020;-60
2023/01/25 11:30:35;;;;;;;1.00;0.65;;;;;;;;;;5092939;28;20028;-63
2023/01/25 11:33:01;;;;;;;1.33;0.35;;;;;;;;;;5092425;28;20027;-59
2023/01/25 11:35:30;;;;;;;0.28;0.20;;;;;;;;;;5092585;28;20063;-60
2023/01/25 11:38:05;;;;;;;0.80;0.30;;;;;;;;;;5093017;28;20069;-61
2023/01/25 11:40:40;;;;;;;1.75;0.60;;;;;;;;;;5094188;28;20380;-61
2023/01/25 11:43:14;;;;;;;0.93;0.20;;;;;;;;;;5093602;28;20063;-59
2023/01/25 11:46:01;;;;;;;1.00;0.60;;;;;;;;;;5093602;28;20023;-61
2023/01/25 11:48:46;;;;;;;0.90;0.47;;;;;;;;;;5093205;28;20055;-59
2023/01/25 11:51:34;;;;;;;0.80;0.30;;;;;;;;;;5091506;28;20039;-60
2023/01/25 11:54:18;;;;;;;0.88;0.40;;;;;;;;;;5063886;28;20070;-60
2023/01/25 11:56:49;;;;;;;0.50;0.38;;;;;;;;;;5091326;28;20023;-61
2023/01/25 11:59:25;;;;;;;1.33;0.73;;;;;;;;;;5090889;28;20057;-60
2023/01/25 12:02:07;;;;;;;0.68;0.40;;;;;;;;;;5092452;28;20019;-60
2023/01/25 12:04:45;;;;;;;0.60;0.28;;;;;;;;;;5090243;28;20500;-59
2023/01/25 12:07:10;;;;;;;0.73;0.30;;;;;;;;;;5091646;28;20480;-61
2023/01/25 12:09:38;;;;;;;2.72;1.38;;;;;;;;;;5092089;28;20016;-62
2023/01/25 12:12:07;;;;;;;0.55;0.22;;;;;;;;;;5092437;28;20020;-60
2023/01/25 12:14:38;;;;;;;0.70;0.20;;;;;;;;;;5092499;28;20077;-60
2023/01/25 12:17:04;;;;;;;0.95;0.40;;;;;;;;;;5092048;28;20020;-59
2023/01/25 12:19:45;;;;;;;4.43;0.50;;;;;;;;;;5092379;28;20028;-58
2023/01/25 12:22:11;;;;;;;0.68;0.40;;;;;;;;;;5092646;28;20023;-60
2023/01/25 12:24:50;;;;;;;0.65;0.30;;;;;;;;;;5094365;28;20404;-62
2023/01/25 12:27:24;;;;;;;1.20;0.55;;;;;;;;;;5094288;28;20530;-60
2023/01/25 12:30:16;;;;;;;0.70;0.60;;;;;;;;;;5092726;28;20031;-59
2023/01/25 12:32:55;;;;;;;1.33;0.80;;;;;;;;;;5088913;28;20352;-60
2023/01/25 12:35:21;;;;;;;0.80;0.30;;;;;;;;;;5092423;28;20023;-58
2023/01/25 12:37:47;;;;;;;3.15;0.70;;;;;;;;;;5092694;28;20099;-61
2023/01/25 12:40:16;;;;;;;0.80;0.55;;;;;;;;;;5092199;28;20016;-59
2023/01/25 12:42:45;;;;;;;1.00;0.68;;;;;;;;;;5092548;28;20024;-60
2023/01/25 12:45:14;;;;;;;4.28;0.70;;;;;;;;;;5091160;28;20183;-59
2023/01/25 12:47:44;;;;;;;3.03;1.45;;;;;;;;;;5090897;28;20031;-58
2023/01/25 12:50:21;;;;;;;1.50;0.80;;;;;;;;;;5092138;28;20027;-58
2023/01/25 12:52:50;;;;;;;0.98;0.60;;;;;;;;;;5091902;28;20028;-60
2023/01/25 12:55:16;;;;;;;1.48;0.90;;;;;;;;;;5091810;28;20065;-59
2023/01/25 12:57:52;;;;;;;1.55;0.90;;;;;;;;;;5091630;28;20060;-60
2023/01/25 13:00:20;;;;;;;2.45;0.93;;;;;;;;;;5091893;28;20392;-59
2023/01/25 13:03:04;;;;;;;1.55;1.05;;;;;;;;;;5091785;28;20028;-60
2023/01/25 13:05:37;;;;;;;1.20;1.00;;;;;;;;;;5092091;28;20052;-59
2023/01/25 13:08:26;;;;;;;1.70;1.02;;;;;;;;;;5092307;28;20020;-59
2023/01/25 13:10:53;;;;;;;3.72;0.90;;;;;;;;;;5084007;28;20067;-59
2023/01/25 13:13:20;;;;;;;2.10;1.17;;;;;;;;;;5092076;28;20078;-60
2023/01/25 13:15:45;;;;;;;1.40;1.20;;;;;;;;;;5092681;28;20485;-59
2023/01/25 13:18:23;;;;;;;1.77;1.23;;;;;;;;;;5092564;28;20024;-59
2023/01/25 13:20:49;;;;;;;2.05;1.35;;;;;;;;;;5091991;28;20024;-59
2023/01/25 13:23:33;;;;;;;2.53;1.23;;;;;;;;;;5091772;28;20023;-61
2023/01/25 13:26:17;;;;;;;1.23;0.90;;;;;;;;;;5094213;28;20069;-59
2023/01/25 13:28:46;;;;;;;3.88;1.30;;;;;;;;;;5095567;28;20031;-66
2023/01/25 13:31:30;;;;;;;1.15;0.93;;;;;;;;;;5095249;28;20430;-59
2023/01/25 13:33:58;;;;;;;1.80;0.90;;;;;;;;;;5095066;28;20028;-60
2023/01/25 13:36:41;;;;;;;4.07;1.35;;;;;;;;;;5096523;28;20031;-60
2023/01/25 13:39:31;;;;;;;1.67;0.90;;;;;;;;;;5096561;28;20044;-59
2023/01/25 13:41:57;;;;;;;2.58;1.05;;;;;;;;;;5096952;28;20024;-59
2023/01/25 13:44:27;;;;;;;2.10;1.33;;;;;;;;;;5095704;28;20042;-61
2023/01/25 13:46:53;;;;;;;2.97;1.50;;;;;;;;;;5095038;28;20024;-60
2023/01/25 13:49:21;;;;;;;4.47;2.10;;;;;;;;;;5095406;28;20020;-63
2023/01/25 13:51:47;;;;;;;1.38;0.98;;;;;;;;;;5095049;28;20069;-59
2023/01/25 13:54:16;;;;;;;1.95;1.27;;;;;;;;;;5094330;28;20036;-59
2023/01/25 13:56:41;;;;;;;0.88;0.82;;;;;;;;;;5094939;28;20099;-61
2023/01/25 13:59:22;;;;;;;3.90;1.13;;;;;;;;;;5094382;28;20012;-60
2023/01/25 14:01:47;;;;;;;2.90;0.98;;;;;;;;;;5095015;28;20020;-60
2023/01/25 14:04:13;;;;;;;2.92;1.60;;;;;;;;;;5094512;28;20358;-60
2023/01/25 14:06:39;;;;;;;1.92;1.40;;;;;;;;;;5094143;28;20051;-60
2023/01/25 14:09:12;;;;;;;4.03;1.70;;;;;;;;;;5094562;28;20020;-59
2023/01/25 14:11:42;;;;;;;2.90;2.08;;;;;;;;;;5094459;28;20487;-60
2023/01/25 14:14:26;;;;;;;7.50;1.58;;;;;;;;;;5094102;28;20123;-60
2023/01/25 14:17:10;;;;;;;3.22;1.55;;;;;;;;;;5094175;28;20038;-59
2023/01/25 14:19:38;;;;;;;2.47;1.50;;;;;;;;;;5093989;28;20058;-60
2023/01/25 14:22:22;;;;;;;4.55;1.83;;;;;;;;;;5093997;28;20471;-61
2023/01/25 14:25:05;;;;;;;3.35;1.40;;;;;;;;;;5094310;28;20468;-59
2023/01/25 14:27:32;;;;;;;4.90;1.40;;;;;;;;;;5094552;28;20020;-60
2023/01/25 14:29:58;;;;;;;4.50;2.10;;;;;;;;;;5092848;28;20047;-59
2023/01/25 14:32:25;;;;;;;3.38;1.55;;;;;;;;;;5094270;28;20468;-59
2023/01/25 14:34:50;;;;;;;3.75;1.42;;;;;;;;;;5093663;28;20032;-59
2023/01/25 14:37:17;;;;;;;1.73;1.45;;;;;;;;;;5093387;28;20015;-60
2023/01/25 14:39:43;;;;;;;2.97;1.15;;;;;;;;;;5094324;28;20073;-58
2023/01/25 14:42:09;;;;;;;4.07;1.75;;;;;;;;;;5092478;28;20016;-61
2023/01/25 14:44:35;;;;;;;5.20;2.40;;;;;;;;;;5093762;28;20353;-60
2023/01/25 14:47:20;;;;;;;2.50;1.60;;;;;;;;;;5093599;28;20368;-60
2023/01/25 14:49:46;;;;;;;2.35;1.30;;;;;;;;;;5093741;28;20407;-62
2023/01/25 14:52:13;;;;;;;1.52;1.42;;;;;;;;;;5093574;28;20102;-61